Time;durP1;ratioP1;P1;durP2;ratioP2;P2;SDS_P1;SDS_P2;PMS_P1;PMS_P2;Temp;Humidity;BMP_temperature;BMP_pressure;BME280_temperature;BME280_humidity;BME280_pressure;Samples;Min_cycle;Max_cycle;Signal;HPM_P1;HPM_P2
2022/08/06 00:00:55;;;;;;;2.78;0.90;;;11.80;99.90;;;;;;4951905;28;20023;-76
2022/08/06 00:03:21;;;;;;;1.23;0.80;;;11.70;99.90;;;;;;4952000;28;20023;-78
2022/08/06 00:05:47;;;;;;;2.10;0.82;;;11.60;99.90;;;;;;4952380;28;20027;-78
2022/08/06 00:08:12;;;;;;;0.85;0.80;;;11.60;99.90;;;;;;4951687;28;20028;-78
2022/08/06 00:10:38;;;;;;;1.50;1.20;;;11.60;99.90;;;;;;4951787;28;20031;-78
2022/08/06 00:13:04;;;;;;;0.75;0.68;;;11.60;99.90;;;;;;4977951;23;20039;-73
2022/08/06 00:15:31;;;;;;;2.58;0.60;;;11.50;99.90;;;;;;4970155;28;20132;-74
2022/08/06 00:17:57;;;;;;;0.88;0.75;;;11.50;99.90;;;;;;4970392;28;20023;-73
2022/08/06 00:20:23;;;;;;;1.77;0.90;;;11.50;99.90;;;;;;4970164;28;20042;-73
2022/08/06 00:22:49;;;;;;;1.85;1.00;;;11.40;99.90;;;;;;4968056;28;20015;-73
2022/08/06 00:25:14;;;;;;;2.65;1.02;;;11.40;99.90;;;;;;4951905;28;20484;-73
2022/08/06 00:27:40;;;;;;;1.20;0.90;;;11.40;99.90;;;;;;4951350;28;20030;-73
2022/08/06 00:30:09;;;;;;;1.00;0.90;;;11.40;99.90;;;;;;4951856;28;20081;-73
2022/08/06 00:32:35;;;;;;;1.27;0.77;;;11.40;99.90;;;;;;4951518;28;20549;-73
2022/08/06 00:35:01;;;;;;;0.60;0.60;;;11.40;99.90;;;;;;4950314;28;20024;-73
2022/08/06 00:37:28;;;;;;;0.80;0.73;;;11.40;99.90;;;;;;4951580;28;20015;-73
2022/08/06 00:39:55;;;;;;;0.63;0.63;;;11.30;99.90;;;;;;4951636;28;20023;-73
2022/08/06 00:42:21;;;;;;;1.10;0.82;;;11.20;99.90;;;;;;4951217;28;20084;-73
2022/08/06 00:44:47;;;;;;;1.13;0.63;;;11.20;99.90;;;;;;4951572;28;20031;-74
2022/08/06 00:47:13;;;;;;;2.65;0.95;;;11.20;99.90;;;;;;4948808;28;20500;-73
2022/08/06 00:49:38;;;;;;;1.33;0.80;;;11.10;99.90;;;;;;4953884;28;20094;-73
2022/08/06 00:52:04;;;;;;;1.33;0.80;;;11.20;99.90;;;;;;4958852;28;20035;-73
2022/08/06 00:54:30;;;;;;;1.58;0.73;;;11.20;99.90;;;;;;4949600;28;20046;-73
2022/08/06 00:56:56;;;;;;;6.03;1.75;;;11.20;99.90;;;;;;4951131;28;20027;-73
2022/08/06 00:59:22;;;;;;;1.42;0.60;;;11.20;99.90;;;;;;4951241;28;20027;-74
2022/08/06 01:01:48;;;;;;;1.83;0.98;;;11.30;99.90;;;;;;4951620;28;20020;-73
2022/08/06 01:04:13;;;;;;;1.35;0.57;;;11.30;99.90;;;;;;4951038;28;20024;-73
2022/08/06 01:06:39;;;;;;;1.42;0.70;;;11.40;99.90;;;;;;4951367;28;20393;-73
2022/08/06 01:09:05;;;;;;;1.00;1.00;;;11.50;99.90;;;;;;4951231;28;20434;-73
2022/08/06 01:11:31;;;;;;;1.52;1.00;;;11.70;99.90;;;;;;4951429;28;20019;-73
2022/08/06 01:13:56;;;;;;;0.85;0.63;;;11.80;99.90;;;;;;5056599;23;20518;-78
2022/08/06 01:16:48;;;;;;;1.85;0.80;;;11.90;99.90;;;;;;5051937;28;20115;-76
2022/08/06 01:19:49;;;;;;;0.85;0.68;;;12.30;99.90;;;;;;5062208;28;21207;-76
2022/08/06 01:22:55;;;;;;;1.60;0.75;;;12.40;99.90;;;;;;5048821;28;20490;-78
2022/08/06 01:25:49;;;;;;;3.50;0.95;;;12.70;99.90;;;;;;5005268;28;20071;-79
2022/08/06 01:28:24;;;;;;;1.95;0.70;;;12.80;99.90;;;;;;5051355;28;20029;-78
2022/08/06 01:30:57;;;;;;;2.97;0.70;;;12.90;99.90;;;;;;5051553;28;20024;-78
2022/08/06 01:33:29;;;;;;;2.33;0.70;;;12.90;99.90;;;;;;5051273;28;20536;-78
2022/08/06 01:35:58;;;;;;;2.30;0.70;;;12.80;99.90;;;;;;5044463;28;20474;-78
2022/08/06 01:38:34;;;;;;;2.28;0.70;;;12.90;99.90;;;;;;5051171;28;20381;-78
2022/08/06 01:41:04;;;;;;;1.83;0.70;;;12.90;99.90;;;;;;5051220;28;20544;-78
2022/08/06 01:43:32;;;;;;;0.95;0.50;;;13.00;99.90;;;;;;5050810;28;20013;-78
2022/08/06 01:46:00;;;;;;;1.60;0.70;;;13.10;99.40;;;;;;5050621;28;20028;-76
2022/08/06 01:48:28;;;;;;;1.25;0.70;;;13.20;96.90;;;;;;5051067;28;20043;-78
2022/08/06 01:50:57;;;;;;;0.80;0.70;;;13.30;98.00;;;;;;5051365;28;20482;-78
2022/08/06 01:53:29;;;;;;;0.32;0.32;;;13.40;95.80;;;;;;5050719;28;20540;-78
2022/08/06 01:55:59;;;;;;;0.95;0.50;;;13.40;96.00;;;;;;5044197;28;20035;-78
2022/08/06 01:58:29;;;;;;;2.15;0.70;;;13.40;96.70;;;;;;5032586;28;20472;-78
2022/08/06 02:00:56;;;;;;;1.17;0.50;;;13.40;95.40;;;;;;5050560;28;20020;-78
2022/08/06 02:03:31;;;;;;;2.53;0.52;;;13.40;95.20;;;;;;5050492;28;20347;-76
2022/08/06 02:05:59;;;;;;;1.70;0.55;;;13.60;92.30;;;;;;5044226;28;20564;-75
2022/08/06 02:08:30;;;;;;;1.15;0.52;;;13.60;93.20;;;;;;5050609;28;20028;-75
2022/08/06 02:10:58;;;;;;;2.30;0.60;;;13.70;93.20;;;;;;5050849;28;20522;-75
2022/08/06 02:13:25;;;;;;;4.45;0.65;;;13.70;92.20;;;;;;5050824;28;20029;-75
2022/08/06 02:15:53;;;;;;;1.30;0.52;;;13.70;93.30;;;;;;5050725;28;20017;-75
2022/08/06 02:18:22;;;;;;;0.60;0.60;;;13.70;92.30;;;;;;5050429;28;20025;-78
2022/08/06 02:20:52;;;;;;;1.05;0.47;;;13.70;91.20;;;;;;5050596;28;20094;-78
2022/08/06 02:23:21;;;;;;;0.77;0.50;;;13.70;91.60;;;;;;5050667;28;20018;-76
2022/08/06 02:25:49;;;;;;;2.63;0.70;;;13.80;90.40;;;;;;5050508;28;20095;-78
2022/08/06 02:28:18;;;;;;;1.85;0.60;;;13.80;92.40;;;;;;5050582;28;20081;-75
2022/08/06 02:30:47;;;;;;;1.23;0.75;;;13.70;91.10;;;;;;5050902;28;20478;-76
2022/08/06 02:33:13;;;;;;;1.15;0.55;;;13.60;93.70;;;;;;5044065;28;20025;-75
2022/08/06 02:35:50;;;;;;;2.47;0.70;;;13.60;92.00;;;;;;5050607;28;20017;-76
2022/08/06 02:38:48;;;;;;;0.73;0.55;;;13.70;91.80;;;;;;5050773;28;20051;-75
2022/08/06 02:41:17;;;;;;;1.70;0.63;;;13.60;92.80;;;;;;5016278;28;20047;-78
2022/08/06 02:43:51;;;;;;;0.55;0.50;;;13.60;92.30;;;;;;5050142;28;20323;-75
2022/08/06 02:46:25;;;;;;;1.58;0.95;;;13.60;93.00;;;;;;5050458;28;20021;-79
2022/08/06 02:49:02;;;;;;;2.03;0.60;;;13.50;94.00;;;;;;5050617;28;20013;-78
2022/08/06 02:51:38;;;;;;;0.60;0.60;;;13.40;96.50;;;;;;5044653;28;20021;-75
2022/08/06 02:54:15;;;;;;;0.77;0.68;;;13.50;95.40;;;;;;5043495;28;20029;-75
2022/08/06 02:56:45;;;;;;;0.82;0.60;;;13.40;96.40;;;;;;5051414;28;20064;-78
2022/08/06 02:59:15;;;;;;;1.75;0.68;;;13.30;96.90;;;;;;5053794;28;20162;-78
2022/08/06 03:01:52;;;;;;;0.90;0.63;;;13.30;98.20;;;;;;5054607;28;20036;-77
2022/08/06 03:04:21;;;;;;;1.30;0.75;;;13.30;98.20;;;;;;5054191;28;20105;-78
2022/08/06 03:06:47;;;;;;;0.60;0.60;;;13.30;98.10;;;;;;5061509;28;20029;-78
2022/08/06 03:09:16;;;;;;;2.95;0.93;;;13.30;98.00;;;;;;5054019;28;20029;-78
2022/08/06 03:11:44;;;;;;;1.85;0.95;;;13.30;98.00;;;;;;5054233;28;20090;-75
2022/08/06 03:14:12;;;;;;;0.77;0.77;;;13.30;98.40;;;;;;5026852;23;20398;-73
2022/08/06 03:16:39;;;;;;;2.47;0.70;;;13.20;98.30;;;;;;4990000;28;20027;-73
2022/08/06 03:19:06;;;;;;;1.33;0.90;;;13.30;98.20;;;;;;4991669;28;20038;-73
2022/08/06 03:21:34;;;;;;;2.53;0.85;;;13.30;98.60;;;;;;4991544;28;20022;-73
2022/08/06 03:24:01;;;;;;;0.80;0.65;;;13.30;99.90;;;;;;4990512;28;20075;-73
2022/08/06 03:26:28;;;;;;;1.50;1.02;;;13.20;99.30;;;;;;4990108;28;20029;-73
2022/08/06 03:28:55;;;;;;;3.47;1.15;;;13.20;99.90;;;;;;4990320;28;20030;-73
2022/08/06 03:31:23;;;;;;;1.38;1.10;;;13.20;99.90;;;;;;4990171;28;20123;-73
2022/08/06 03:33:50;;;;;;;2.03;1.15;;;13.20;99.90;;;;;;4990309;28;20053;-73
2022/08/06 03:36:17;;;;;;;2.75;1.20;;;13.20;99.90;;;;;;4990408;28;20030;-73
2022/08/06 03:38:50;;;;;;;2.45;1.25;;;13.20;99.90;;;;;;4990565;28;20080;-73
2022/08/06 03:41:18;;;;;;;3.63;1.30;;;13.20;99.70;;;;;;4990102;28;20030;-73
2022/08/06 03:43:43;;;;;;;2.38;1.48;;;13.20;99.90;;;;;;4988043;28;20042;-73
2022/08/06 03:46:11;;;;;;;1.35;1.05;;;13.20;99.90;;;;;;4989959;28;20026;-73
2022/08/06 03:48:41;;;;;;;2.70;1.00;;;13.20;99.90;;;;;;4989775;28;20113;-73
2022/08/06 03:51:17;;;;;;;0.80;0.70;;;13.10;99.90;;;;;;4989627;28;20478;-73
2022/08/06 03:53:44;;;;;;;4.10;1.48;;;13.00;99.90;;;;;;4989998;28;20487;-73
2022/08/06 03:56:16;;;;;;;3.72;1.30;;;13.00;99.90;;;;;;4990134;28;20068;-73
2022/08/06 03:58:44;;;;;;;3.88;1.20;;;12.90;99.90;;;;;;4983508;28;20425;-73
2022/08/06 04:01:14;;;;;;;1.17;1.05;;;12.90;99.90;;;;;;4989460;28;20068;-73
2022/08/06 04:03:42;;;;;;;2.58;1.50;;;12.90;99.90;;;;;;4989693;28;20495;-73
2022/08/06 04:06:09;;;;;;;3.47;1.30;;;12.90;99.90;;;;;;4990170;28;20498;-73
2022/08/06 04:08:37;;;;;;;1.95;1.65;;;12.90;99.90;;;;;;4989269;28;20490;-73
2022/08/06 04:11:04;;;;;;;3.45;1.33;;;12.90;99.90;;;;;;4989579;28;20687;-73
2022/08/06 04:13:30;;;;;;;1.55;1.15;;;12.80;99.90;;;;;;5046427;22;20046;-78
2022/08/06 04:15:57;;;;;;;3.00;1.50;;;12.80;99.90;;;;;;5053749;28;20031;-78
2022/08/06 04:18:30;;;;;;;2.13;1.52;;;12.80;99.90;;;;;;5071377;28;20051;-78
2022/08/06 04:21:02;;;;;;;3.35;1.98;;;12.80;99.90;;;;;;5071168;28;20553;-78
2022/08/06 04:23:29;;;;;;;3.42;1.77;;;12.80;99.90;;;;;;5064220;28;20017;-77
2022/08/06 04:25:57;;;;;;;3.90;1.70;;;12.70;99.90;;;;;;5052497;28;20013;-77
2022/08/06 04:28:26;;;;;;;3.20;1.98;;;12.80;99.90;;;;;;5052130;28;20052;-77
2022/08/06 04:30:53;;;;;;;4.28;1.92;;;12.90;99.90;;;;;;5052046;28;20432;-77
2022/08/06 04:33:22;;;;;;;2.88;1.50;;;12.80;99.90;;;;;;5052521;28;20025;-77
2022/08/06 04:35:48;;;;;;;2.35;1.63;;;12.80;99.90;;;;;;5052376;28;20028;-77
2022/08/06 04:38:16;;;;;;;2.65;1.83;;;12.80;99.90;;;;;;5034258;28;20058;-77
2022/08/06 04:40:42;;;;;;;3.90;1.70;;;12.80;99.90;;;;;;5052013;28;20029;-77
2022/08/06 04:43:12;;;;;;;3.85;2.13;;;12.90;99.90;;;;;;5033932;28;20576;-77
2022/08/06 04:45:41;;;;;;;2.95;1.70;;;12.90;99.90;;;;;;5052001;28;20032;-77
2022/08/06 04:48:11;;;;;;;4.78;1.92;;;12.80;99.90;;;;;;5052031;28;20073;-77
2022/08/06 04:50:37;;;;;;;4.05;2.33;;;12.90;99.90;;;;;;5052081;28;20025;-77
2022/08/06 04:53:15;;;;;;;3.05;2.00;;;12.90;99.90;;;;;;5051830;28;20040;-77
2022/08/06 04:55:42;;;;;;;5.68;2.10;;;12.80;99.90;;;;;;5052360;28;20122;-77
2022/08/06 04:58:09;;;;;;;3.38;1.90;;;12.80;99.90;;;;;;5051348;28;20126;-77
2022/08/06 05:00:37;;;;;;;5.40;2.10;;;12.80;99.90;;;;;;5034037;28;20056;-77
2022/08/06 05:03:04;;;;;;;2.78;1.77;;;12.90;99.90;;;;;;5051962;28;20017;-77
2022/08/06 05:05:33;;;;;;;3.67;1.95;;;12.80;99.90;;;;;;5034177;28;20040;-77
2022/08/06 05:08:02;;;;;;;5.95;2.40;;;12.90;99.90;;;;;;5051890;28;20110;-77
2022/08/06 05:10:34;;;;;;;3.55;2.00;;;12.90;99.90;;;;;;5044715;28;20017;-77
2022/08/06 05:13:02;;;;;;;3.35;1.90;;;12.90;99.90;;;;;;5072218;23;20388;-72
2022/08/06 05:15:33;;;;;;;4.07;2.33;;;13.00;99.90;;;;;;5071443;28;20024;-73
2022/08/06 05:18:10;;;;;;;3.40;2.20;;;13.00;99.90;;;;;;5071424;28;20035;-73
2022/08/06 05:20:39;;;;;;;3.22;2.38;;;13.10;99.90;;;;;;5064478;28;20078;-72
2022/08/06 05:23:16;;;;;;;2.85;2.20;;;13.10;99.90;;;;;;5070632;28;20465;-72
2022/08/06 05:25:42;;;;;;;4.93;2.65;;;13.10;99.90;;;;;;5070017;28;20016;-73
2022/08/06 05:28:08;;;;;;;4.45;2.72;;;13.20;99.90;;;;;;5069848;28;20111;-73
2022/08/06 05:30:41;;;;;;;5.97;2.67;;;13.20;99.90;;;;;;5070316;28;20020;-72
2022/08/06 05:33:06;;;;;;;3.95;2.20;;;13.20;99.90;;;;;;5069758;28;20021;-72
2022/08/06 05:35:32;;;;;;;2.90;1.98;;;13.30;99.90;;;;;;5069878;28;20035;-73
2022/08/06 05:37:58;;;;;;;2.85;2.05;;;13.30;99.90;;;;;;5070424;28;20103;-72
2022/08/06 05:40:23;;;;;;;3.53;2.33;;;13.30;99.90;;;;;;5070262;28;20020;-73
2022/08/06 05:42:49;;;;;;;2.83;2.20;;;13.30;99.90;;;;;;5068667;28;20413;-72
2022/08/06 05:45:19;;;;;;;3.35;1.95;;;13.20;99.90;;;;;;5070165;28;20031;-72
2022/08/06 05:47:46;;;;;;;3.00;2.03;;;13.20;99.90;;;;;;5070047;28;20024;-73
2022/08/06 05:50:18;;;;;;;5.60;2.78;;;13.30;99.90;;;;;;5069628;28;20033;-73
2022/08/06 05:52:54;;;;;;;5.13;2.60;;;13.30;99.90;;;;;;5051932;28;20024;-72
2022/08/06 05:55:30;;;;;;;3.70;2.20;;;13.30;99.90;;;;;;5070245;28;20017;-73
2022/08/06 05:58:05;;;;;;;4.55;2.58;;;13.30;99.90;;;;;;5058821;28;20639;-73
2022/08/06 06:00:32;;;;;;;8.07;2.13;;;13.40;99.90;;;;;;5056558;28;20104;-73
2022/08/06 06:03:02;;;;;;;3.67;2.67;;;13.40;99.90;;;;;;5070067;28;20103;-73
2022/08/06 06:05:30;;;;;;;4.65;2.58;;;13.30;99.90;;;;;;5070069;28;20021;-72
2022/08/06 06:07:56;;;;;;;5.43;2.95;;;13.40;99.90;;;;;;5070251;28;20024;-72
2022/08/06 06:10:24;;;;;;;5.53;2.97;;;13.40;99.90;;;;;;5069739;28;20354;-73
2022/08/06 06:12:50;;;;;;;3.90;2.28;;;13.50;99.90;;;;;;5073619;22;20051;-77
2022/08/06 06:15:17;;;;;;;3.85;2.58;;;13.60;99.90;;;;;;4988710;28;20113;-77
2022/08/06 06:17:49;;;;;;;6.45;2.78;;;13.90;99.90;;;;;;4988679;28;20075;-78
2022/08/06 06:20:19;;;;;;;4.50;2.42;;;14.10;99.90;;;;;;4989175;28;20026;-78
2022/08/06 06:23:00;;;;;;;4.47;2.85;;;14.30;97.30;;;;;;4988217;28;20523;-77
2022/08/06 06:25:37;;;;;;;3.55;2.53;;;14.50;97.20;;;;;;4987819;28;20433;-77
2022/08/06 06:28:26;;;;;;;5.28;2.67;;;14.70;94.60;;;;;;4987483;28;20023;-76
2022/08/06 06:31:18;;;;;;;6.57;2.88;;;14.70;93.40;;;;;;4980074;28;20410;-76
2022/08/06 06:33:50;;;;;;;6.82;3.08;;;14.80;94.70;;;;;;4990605;28;20096;-77
2022/08/06 06:36:34;;;;;;;5.95;3.13;;;14.80;95.50;;;;;;4990998;28;20019;-77
2022/08/06 06:39:27;;;;;;;5.70;2.88;;;14.60;93.50;;;;;;4990743;28;20019;-77
2022/08/06 06:42:07;;;;;;;8.38;3.38;;;14.60;96.40;;;;;;4990810;28;20047;-77
2022/08/06 06:44:52;;;;;;;4.45;2.88;;;14.40;97.40;;;;;;4989827;28;20022;-77
2022/08/06 06:47:39;;;;;;;5.85;2.97;;;14.40;98.20;;;;;;4990224;28;20018;-77
2022/08/06 06:50:13;;;;;;;5.07;3.17;;;14.30;99.90;;;;;;4990322;28;20015;-77
2022/08/06 06:52:42;;;;;;;5.90;3.70;;;14.40;99.90;;;;;;4990161;28;20495;-77
2022/08/06 06:55:11;;;;;;;6.28;3.50;;;14.40;98.00;;;;;;4990743;28;20026;-77
2022/08/06 06:57:43;;;;;;;4.35;2.97;;;14.40;99.90;;;;;;4990529;28;20057;-77
2022/08/06 07:00:09;;;;;;;;;;;14.30;99.90;;;;;;4989690;28;20117;-77
2022/08/06 07:02:40;;;;;;;6.30;3.50;;;14.40;99.90;;;;;;4990560;28;19986;-77
2022/08/06 07:05:07;;;;;;;7.22;3.03;;;14.40;99.90;;;;;;4978115;28;20069;-77
2022/08/06 07:07:36;;;;;;;7.22;3.58;;;14.50;99.90;;;;;;4990356;28;20041;-77
2022/08/06 07:10:05;;;;;;;8.30;3.70;;;14.50;99.30;;;;;;4990600;28;20031;-77
2022/08/06 07:12:34;;;;;;;5.00;3.45;;;14.70;98.20;;;;;;5011166;23;20019;-73
2022/08/06 07:15:02;;;;;;;6.68;3.80;;;14.60;99.90;;;;;;5072244;28;20040;-73
2022/08/06 07:17:31;;;;;;;7.57;3.63;;;14.60;99.90;;;;;;5073890;28;20465;-73
2022/08/06 07:19:59;;;;;;;6.80;3.75;;;14.80;99.80;;;;;;5073627;28;20484;-72
2022/08/06 07:22:25;;;;;;;8.73;4.25;;;14.90;97.70;;;;;;5073595;28;20040;-73
2022/08/06 07:24:59;;;;;;;5.97;3.80;;;14.90;97.70;;;;;;5072034;28;20028;-73
2022/08/06 07:27:32;;;;;;;7.10;4.20;;;14.90;99.90;;;;;;5072331;28;20031;-73
2022/08/06 07:29:59;;;;;;;7.82;4.03;;;15.00;97.60;;;;;;5053644;28;20079;-72
2022/08/06 07:32:26;;;;;;;7.30;4.70;;;15.20;95.80;;;;;;5041644;28;20028;-72
2022/08/06 07:34:53;;;;;;;7.18;4.07;;;15.30;94.60;;;;;;5060359;28;20111;-72
2022/08/06 07:37:21;;;;;;;9.60;5.30;;;15.40;96.90;;;;;;5048327;28;20028;-73
2022/08/06 07:39:49;;;;;;;6.22;4.72;;;15.40;94.20;;;;;;5038790;28;20032;-72
2022/08/06 07:42:16;;;;;;;10.27;5.57;;;15.50;96.00;;;;;;5072300;28;20100;-72
2022/08/06 07:44:47;;;;;;;7.88;4.97;;;15.60;95.60;;;;;;5070312;28;20459;-73
2022/08/06 07:47:19;;;;;;;9.52;5.90;;;15.80;93.40;;;;;;5072094;28;20031;-73
2022/08/06 07:49:49;;;;;;;8.88;5.10;;;15.90;92.60;;;;;;5072401;28;20021;-73
2022/08/06 07:52:17;;;;;;;8.48;5.70;;;16.00;89.80;;;;;;5071636;28;20020;-73
2022/08/06 07:54:44;;;;;;;9.60;5.55;;;16.00;84.40;;;;;;5071661;28;20033;-72
2022/08/06 07:57:10;;;;;;;9.55;5.57;;;16.00;90.80;;;;;;5072104;28;20032;-73
2022/08/06 07:59:36;;;;;;;10.73;5.82;;;16.10;88.40;;;;;;5071581;28;20020;-72
2022/08/06 08:02:04;;;;;;;10.23;6.35;;;16.20;84.00;;;;;;5071689;28;20115;-72
2022/08/06 08:07:15;;;;;;;10.15;5.40;;;16.40;84.90;;;;;;5071893;28;20032;-72
2022/08/06 08:09:45;;;;;;;7.85;5.47;;;16.50;84.60;;;;;;5071646;28;20028;-72
2022/08/06 08:12:16;;;;;;;9.88;5.32;;;16.60;83.20;;;;;;5067485;28;20025;-73
2022/08/06 08:14:47;;;;;;;6.65;4.95;;;16.60;80.60;;;;;;5068631;28;20045;-72
2022/08/06 08:17:14;;;;;;;10.65;6.22;;;16.70;81.40;;;;;;5071716;28;20024;-73
2022/08/06 08:19:40;;;;;;;10.65;5.18;;;16.80;85.90;;;;;;5072022;28;20074;-72
2022/08/06 08:22:15;;;;;;;9.85;5.63;;;16.90;79.30;;;;;;5071413;28;20031;-73
2022/08/06 08:24:44;;;;;;;9.20;5.47;;;16.90;80.60;;;;;;5071044;28;20188;-73
2022/08/06 08:27:10;;;;;;;9.10;5.45;;;16.90;75.60;;;;;;5071445;28;20048;-72
2022/08/06 08:29:38;;;;;;;9.38;5.80;;;17.10;78.10;;;;;;5071410;28;20091;-72
2022/08/06 08:32:05;;;;;;;8.35;5.22;;;17.20;79.10;;;;;;5071454;28;20013;-73
2022/08/06 08:34:31;;;;;;;8.45;5.60;;;17.30;77.20;;;;;;5070967;28;20099;-73
2022/08/06 08:36:57;;;;;;;13.35;5.40;;;17.40;77.30;;;;;;5055283;28;20028;-73
2022/08/06 08:39:23;;;;;;;6.95;4.60;;;17.50;73.80;;;;;;5055581;28;20025;-72
2022/08/06 08:42:08;;;;;;;8.75;4.55;;;17.60;75.30;;;;;;5064103;28;20071;-73
2022/08/06 08:44:34;;;;;;;7.85;4.70;;;17.70;76.40;;;;;;5063736;28;20104;-73
2022/08/06 08:47:01;;;;;;;7.90;4.55;;;17.80;71.30;;;;;;5064577;28;20450;-73
2022/08/06 08:49:41;;;;;;;7.03;4.88;;;18.00;69.20;;;;;;5071016;28;20362;-73
2022/08/06 08:52:08;;;;;;;8.10;4.32;;;18.20;68.70;;;;;;5070985;28;20100;-72
2022/08/06 08:54:37;;;;;;;6.88;4.78;;;18.40;67.40;;;;;;5050592;28;20075;-73
2022/08/06 08:57:05;;;;;;;6.45;4.28;;;18.80;66.10;;;;;;5060247;28;20021;-73
2022/08/06 08:59:32;;;;;;;5.68;4.20;;;19.50;60.70;;;;;;5070153;28;20028;-73
2022/08/06 09:01:58;;;;;;;7.22;4.15;;;20.00;60.50;;;;;;5070790;28;20029;-73
2022/08/06 09:04:26;;;;;;;7.18;4.18;;;20.80;55.00;;;;;;5070473;28;20051;-74
2022/08/06 09:06:52;;;;;;;5.82;3.70;;;21.30;51.90;;;;;;5057484;28;20016;-73
2022/08/06 09:09:18;;;;;;;5.28;3.42;;;21.50;52.70;;;;;;5070156;28;20111;-73
2022/08/06 09:11:44;;;;;;;6.22;3.55;;;21.90;51.10;;;;;;5070276;28;20104;-73
2022/08/06 09:14:10;;;;;;;4.68;3.35;;;22.60;49.20;;;;;;5064062;28;20401;-74
2022/08/06 09:16:37;;;;;;;4.82;4.05;;;23.50;46.30;;;;;;5069917;28;20017;-73
2022/08/06 09:19:04;;;;;;;5.28;3.53;;;23.90;42.90;;;;;;5060644;28;20017;-73
2022/08/06 09:21:31;;;;;;;5.50;3.28;;;24.00;42.60;;;;;;5061443;28;20020;-72
2022/08/06 09:23:57;;;;;;;15.25;4.82;;;24.70;39.80;;;;;;5069535;28;20032;-73
2022/08/06 09:26:23;;;;;;;6.05;3.75;;;25.00;40.10;;;;;;5068694;28;20016;-73
2022/08/06 09:28:49;;;;;;;8.32;3.85;;;24.90;39.80;;;;;;5070251;28;20504;-73
2022/08/06 09:31:17;;;;;;;5.85;3.80;;;24.40;40.20;;;;;;5052015;28;20017;-73
2022/08/06 09:34:04;;;;;;;5.55;3.55;;;24.00;41.10;;;;;;5070027;28;20032;-73
2022/08/06 09:36:41;;;;;;;5.68;3.50;;;24.50;41.80;;;;;;5070400;28;20043;-73
2022/08/06 09:39:08;;;;;;;5.38;3.22;;;25.40;39.40;;;;;;5070313;28;20021;-73
2022/08/06 09:41:34;;;;;;;5.03;2.78;;;26.70;39.90;;;;;;5070282;28;20055;-73
2022/08/06 09:44:11;;;;;;;4.60;2.90;;;27.80;33.40;;;;;;5056142;28;20028;-73
2022/08/06 09:46:48;;;;;;;4.10;3.10;;;28.50;33.00;;;;;;5062385;28;20491;-73
2022/08/06 09:49:16;;;;;;;4.45;3.08;;;29.10;31.70;;;;;;5065864;28;20032;-73
2022/08/06 09:51:42;;;;;;;6.18;3.38;;;29.70;30.20;;;;;;5051750;28;20025;-72
2022/08/06 09:54:12;;;;;;;5.30;2.92;;;29.80;29.50;;;;;;5059746;28;20036;-72
2022/08/06 09:56:38;;;;;;;4.47;3.20;;;30.10;30.00;;;;;;5057168;28;20020;-73
2022/08/06 09:59:06;;;;;;;5.35;3.83;;;30.00;29.00;;;;;;5067391;28;20060;-73
2022/08/06 10:01:46;;;;;;;4.93;3.40;;;30.00;28.90;;;;;;5070243;28;20013;-73
2022/08/06 10:04:32;;;;;;;4.03;3.35;;;31.20;29.70;;;;;;5056965;28;20028;-73
2022/08/06 10:07:01;;;;;;;4.80;3.20;;;31.90;27.60;;;;;;5057724;28;20158;-73
2022/08/06 10:09:27;;;;;;;3.55;2.70;;;32.40;27.20;;;;;;5049136;28;20020;-73
2022/08/06 10:11:54;;;;;;;5.32;3.33;;;32.50;25.60;;;;;;5066106;28;20417;-73
2022/08/06 10:14:33;;;;;;;3.80;2.80;;;32.70;25.80;;;;;;5064453;28;20040;-73
2022/08/06 10:17:19;;;;;;;4.93;2.60;;;32.60;25.90;;;;;;5055119;28;20029;-73
2022/08/06 10:20:04;;;;;;;5.57;2.92;;;33.20;25.00;;;;;;5058940;28;20025;-73
2022/08/06 10:22:31;;;;;;;4.63;3.05;;;33.10;24.90;;;;;;5059095;28;20024;-73
2022/08/06 10:25:01;;;;;;;5.43;3.05;;;33.80;24.80;;;;;;5069765;28;20076;-73
2022/08/06 10:27:37;;;;;;;3.72;3.00;;;34.00;24.40;;;;;;5069582;28;20040;-74
2022/08/06 10:30:08;;;;;;;3.75;2.80;;;33.20;24.40;;;;;;5068732;28;20029;-74
2022/08/06 10:32:46;;;;;;;3.58;2.72;;;33.50;25.10;;;;;;5062781;28;20025;-74
2022/08/06 10:35:17;;;;;;;4.68;3.05;;;33.50;25.60;;;;;;5042149;28;20075;-74
2022/08/06 10:37:45;;;;;;;3.70;2.75;;;32.80;23.50;;;;;;5065349;28;20533;-74
2022/08/06 10:40:13;;;;;;;6.43;2.70;;;32.80;23.80;;;;;;5068958;28;20067;-73
2022/08/06 10:42:39;;;;;;;4.85;2.60;;;33.10;25.50;;;;;;5063261;28;20588;-74
2022/08/06 10:45:07;;;;;;;3.95;2.70;;;33.50;25.20;;;;;;5069179;28;20020;-73
2022/08/06 10:47:34;;;;;;;3.63;2.60;;;34.70;24.60;;;;;;5069257;28;20028;-73
2022/08/06 10:50:01;;;;;;;5.53;2.75;;;35.70;23.20;;;;;;5069355;28;20020;-73
2022/08/06 10:52:28;;;;;;;2.80;2.40;;;35.90;23.90;;;;;;5066919;28;20025;-73
2022/08/06 10:54:56;;;;;;;5.22;2.65;;;36.40;23.70;;;;;;5069333;28;20025;-74
2022/08/06 10:57:22;;;;;;;4.75;2.92;;;35.70;21.50;;;;;;5069531;28;20481;-73
2022/08/06 10:59:48;;;;;;;3.65;2.67;;;34.70;22.10;;;;;;5069547;28;20025;-73
2022/08/06 11:02:40;;;;;;;5.80;2.95;;;34.50;23.70;;;;;;5069276;28;20021;-73
2022/08/06 11:05:19;;;;;;;3.92;2.88;;;35.50;25.10;;;;;;5039246;28;20028;-74
2022/08/06 11:08:02;;;;;;;3.53;2.50;;;36.40;22.60;;;;;;5055902;28;20093;-74
2022/08/06 11:10:58;;;;;;;3.00;2.40;;;36.90;20.40;;;;;;5055307;28;20021;-74
2022/08/06 11:13:35;;;;;;;4.03;2.40;;;36.70;21.40;;;;;;5052512;28;20031;-73
2022/08/06 11:16:02;;;;;;;4.40;2.35;;;36.70;22.90;;;;;;5057006;28;20020;-73
2022/08/06 11:18:28;;;;;;;3.50;2.33;;;36.70;21.70;;;;;;5069168;28;20040;-73
2022/08/06 11:20:54;;;;;;;3.50;2.40;;;36.10;22.50;;;;;;5072529;28;20508;-73
2022/08/06 11:23:24;;;;;;;4.03;2.13;;;37.80;20.70;;;;;;5070837;28;20351;-73
2022/08/06 11:25:55;;;;;;;6.00;2.77;;;38.60;20.30;;;;;;5066035;28;20055;-73
2022/08/06 11:28:40;;;;;;;3.90;2.17;;;39.50;20.70;;;;;;5069087;28;20025;-73
2022/08/06 11:31:07;;;;;;;4.57;2.17;;;38.90;19.10;;;;;;5048136;28;20089;-73
2022/08/06 11:33:33;;;;;;;2.47;1.83;;;39.70;20.30;;;;;;5072304;28;20025;-73
2022/08/06 11:36:00;;;;;;;3.38;2.50;;;39.90;19.50;;;;;;5072886;28;20025;-73
2022/08/06 11:38:47;;;;;;;4.97;2.53;;;39.00;20.20;;;;;;5067517;28;20032;-74
2022/08/06 11:41:25;;;;;;;3.50;1.77;;;40.10;19.70;;;;;;5058303;28;20024;-74
2022/08/06 11:43:53;;;;;;;3.15;1.92;;;38.60;18.80;;;;;;5066554;28;20019;-75
2022/08/06 11:46:24;;;;;;;5.00;2.42;;;37.10;19.20;;;;;;5063136;28;20013;-74
2022/08/06 11:48:59;;;;;;;2.60;2.13;;;36.00;21.20;;;;;;5051127;28;20381;-74
2022/08/06 11:51:41;;;;;;;2.90;2.20;;;35.00;21.10;;;;;;5056200;28;20013;-74
2022/08/06 11:54:24;;;;;;;2.90;2.20;;;33.90;23.20;;;;;;5058408;28;20032;-73
2022/08/06 11:57:01;;;;;;;4.10;2.40;;;34.00;22.40;;;;;;5058101;28;20025;-73
2022/08/06 11:59:44;;;;;;;4.65;2.88;;;35.20;22.30;;;;;;5070969;28;20021;-73
2022/08/06 12:02:12;;;;;;;2.88;2.20;;;36.10;21.70;;;;;;5071174;28;20021;-73
2022/08/06 12:04:38;;;;;;;2.38;2.17;;;36.90;21.20;;;;;;5071442;28;20086;-74
2022/08/06 12:07:22;;;;;;;4.20;2.78;;;36.90;21.20;;;;;;5072002;28;20030;-74
2022/08/06 12:10:06;;;;;;;3.70;2.45;;;36.40;21.20;;;;;;5062113;28;20020;-74
2022/08/06 12:12:32;;;;;;;3.78;2.88;;;38.10;21.30;;;;;;5056026;28;20025;-73
2022/08/06 12:15:28;;;;;;;4.97;3.15;;;38.80;20.70;;;;;;5071829;28;20032;-74
2022/08/06 12:17:57;;;;;;;6.38;2.92;;;37.90;21.10;;;;;;5060245;28;20101;-73
2022/08/06 12:20:39;;;;;;;4.28;2.83;;;36.40;21.90;;;;;;5071666;28;20044;-73
2022/08/06 12:23:11;;;;;;;6.32;3.03;;;36.00;23.20;;;;;;5071455;28;20009;-74
2022/08/06 12:25:38;;;;;;;4.15;2.58;;;36.80;23.40;;;;;;5071444;28;20033;-73
2022/08/06 12:28:07;;;;;;;3.78;2.75;;;37.50;22.70;;;;;;5053184;28;20021;-73
2022/08/06 12:30:47;;;;;;;3.45;2.65;;;36.70;21.30;;;;;;5070222;28;20013;-74
2022/08/06 12:33:13;;;;;;;6.85;2.85;;;36.60;22.30;;;;;;5057002;28;20107;-74
2022/08/06 12:35:50;;;;;;;6.30;2.60;;;36.40;22.40;;;;;;5070975;28;20036;-73
2022/08/06 12:38:17;;;;;;;3.53;2.67;;;37.70;23.40;;;;;;5071068;28;20111;-74
2022/08/06 12:41:02;;;;;;;3.20;2.47;;;38.30;21.30;;;;;;5053500;28;20020;-74
2022/08/06 12:43:29;;;;;;;2.72;2.47;;;37.90;20.80;;;;;;5055266;28;20058;-73
2022/08/06 12:46:00;;;;;;;3.15;2.25;;;38.70;20.50;;;;;;5052945;28;20025;-73
2022/08/06 12:48:26;;;;;;;;;;;39.20;20.60;;;;;;5064945;28;20039;-73
2022/08/06 12:51:09;;;;;;;5.50;2.65;;;39.30;21.30;;;;;;5067240;28;19990;-74
2022/08/06 12:53:50;;;;;;;3.05;2.38;;;39.70;22.00;;;;;;5065338;28;20028;-74
2022/08/06 12:56:17;;;;;;;3.03;2.10;;;41.00;19.70;;;;;;5054900;28;20075;-74
2022/08/06 12:58:44;;;;;;;6.10;2.90;;;40.70;19.80;;;;;;5028966;28;20029;-73
2022/08/06 13:01:18;;;;;;;3.75;2.88;;;40.70;18.70;;;;;;5064721;28;20013;-73
2022/08/06 13:03:46;;;;;;;2.60;2.15;;;40.30;19.20;;;;;;5062699;28;20467;-75
2022/08/06 13:06:15;;;;;;;3.83;2.55;;;40.40;19.80;;;;;;5070605;28;20028;-75
2022/08/06 13:08:41;;;;;;;2.78;2.53;;;41.20;19.60;;;;;;5057329;28;20501;-76